Latest Weather Observations for Cape Flattery

IDQ60801

Issued at 5:05 pm EST Thursday 28 August 2014 (issued every 30 minutes, with the page automatically refreshed every 10 minutes)

About weather observations | Map of weather stations | Latest weather observations for QLD | Other Formats
Station Details ID: 031213 Name: CAPE FLATTERY Lat: -14.97 Lon: 145.31 Height: 18.5 m
Data from the previous 72 hours. | See also: Recent months at Cape Flattery
Date/Time
EST
Temp
°C
App
Temp
°C
Dew
Point
Rel
Hum
%
Delta-T
°C
Wind Press
QNH
hPa
Press
MSL
hPa
Rain
since 9 am
mm
Dir
 
Spd
km/h
Gust
km/h
Spd
kts
Gust
kts
28/05:00pm 24.0 25.8 15.5 59 5.1 SE 0 0 0 0 1015.6 1015.5 0.0
28/04:30pm 24.5 26.0 14.6 54 5.9 SE 0 0 0 0 1015.2 1015.1 0.0
28/04:00pm 25.1 26.1 13.3 48 6.9 CALM 0 0 0 0 1015.1 1015.0 0.0
28/03:30pm 25.6 26.7 13.5 47 7.1 CALM 0 0 0 0 1015.3 1015.2 0.0
28/03:00pm 26.4 27.7 14.2 47 7.3 CALM 0 0 0 0 1015.3 1015.2 0.0
28/02:30pm 26.0 27.1 13.5 46 7.3 CALM 0 0 0 0 1015.6 1015.5 0.0
28/02:00pm 26.4 27.5 13.5 45 7.6 CALM 0 0 0 0 1015.8 1015.7 0.0
28/01:30pm 27.1 28.4 14.1 44 7.8 CALM 0 0 0 0 1016.0 1015.9 0.0
28/01:00pm 26.5 27.6 13.6 45 7.6 CALM 0 0 0 0 1016.2 1016.1 0.0
28/12:30pm 26.3 27.3 13.1 44 7.7 CALM 0 0 0 0 1016.5 1016.4 0.0
28/12:00pm 26.4 27.6 13.9 46 7.4 CALM 0 0 0 0 1016.8 1016.7 0.0
28/11:30am 26.1 27.2 13.6 46 7.4 CALM 0 0 0 0 1017.3 1017.2 0.0
28/11:00am 26.2 27.5 14.0 47 7.2 CALM 0 0 0 0 1017.6 1017.5 0.0
28/10:30am 26.2 27.8 15.0 50 6.8 CALM 0 0 0 0 1017.6 1017.5 0.0
28/10:00am 25.6 27.0 14.4 50 6.7 CALM 0 0 0 0 1017.7 1017.6 0.0
28/09:30am 25.1 26.5 14.3 51 6.4 CALM 0 0 0 0 1017.6 1017.5 0.0
28/09:00am 24.7 26.1 14.5 53 6.1 CALM 0 0 0 0 1017.5 1017.4 0.0
28/08:30am 24.1 20.3 14.8 56 5.5 SE 28 41 15 22 1017.4 1017.3 0.0
28/08:00am 23.5 20.5 14.8 58 5.2 SE 24 35 13 19 1017.1 1017.0 0.0
28/07:30am 22.7 20.5 15.0 61 4.6 SE 20 28 11 15 1016.7 1016.6 0.0
28/07:00am 21.9 18.8 14.5 63 4.3 SE 24 32 13 17 1016.4 1016.3 0.0
28/06:30am 21.3 18.8 14.2 64 4.1 SE 20 30 11 16 1016.1 1016.0 0.0
28/06:00am 21.6 19.2 14.3 63 4.3 SE 20 32 11 17 1016.0 1015.9 0.0
28/05:30am 21.4 19.1 14.1 63 4.2 SE 19 28 10 15 1015.7 1015.6 0.0
28/05:00am 21.5 18.6 13.9 62 4.4 SE 22 30 12 16 1015.4 1015.3 0.0
28/04:30am 21.4 18.6 13.3 60 4.6 SE 20 28 11 15 1015.2 1015.1 0.0
28/04:00am 21.4 18.3 13.3 60 4.6 SE 22 32 12 17 1015.3 1015.2 0.0
28/03:30am 21.2 18.5 13.4 61 4.5 SE 20 28 11 15 1015.5 1015.4 0.0
28/03:00am 21.5 18.9 13.9 62 4.4 SE 20 30 11 16 1015.7 1015.6 0.0
28/02:30am 21.5 18.5 13.7 61 4.5 SE 22 33 12 18 1015.8 1015.7 0.0
28/02:00am 21.2 18.4 13.1 60 4.6 SE 20 26 11 14 1016.0 1015.9 0.0
28/01:30am 21.4 19.0 14.3 64 4.1 SE 20 26 11 14 1016.2 1016.1 0.0
28/01:00am 21.6 18.9 14.5 64 4.2 SE 22 30 12 16 1016.4 1016.3 0.0
28/12:30am 21.5 19.4 15.1 67 3.8 SE 20 30 11 16 1016.6 1016.5 0.0
28/12:00am 21.6 19.6 15.0 66 3.9 SE 19 26 10 14 1016.7 1016.6 0.0
 
Date/Time
EST
Temp
°C
App
Temp
°C
Dew
Point
Rel
Hum
%
Delta-T
°C
Wind Press
QNH
hPa
Press
MSL
hPa
Rain
since 9 am
mm
Dir
 
Spd
km/h
Gust
km/h
Spd
kts
Gust
kts
27/11:30pm 21.5 19.4 14.6 65 4.1 SE 19 24 10 13 1017.1 1017.0 0.0
27/11:00pm 21.5 19.1 14.4 64 4.1 ESE 20 30 11 16 1017.1 1017.0 0.0
27/10:30pm 21.8 19.2 14.9 65 4.1 SE 22 32 12 17 1017.0 1016.9 0.0
27/10:00pm 21.6 18.9 14.7 65 4.1 SE 22 32 12 17 1016.9 1016.8 0.0
27/09:30pm 21.6 19.2 14.5 64 4.2 SE 20 32 11 17 1016.7 1016.6 0.0
27/09:00pm 22.0 19.0 14.9 64 4.2 SE 24 35 13 19 1016.6 1016.5 0.0
27/08:30pm 21.9 18.9 14.8 64 4.2 SE 24 33 13 18 1016.3 1016.2 0.0
27/08:00pm 22.0 19.5 15.1 65 4.1 SE 22 35 12 19 1015.9 1015.8 0.0
27/07:30pm 22.0 19.5 15.1 65 4.1 SE 22 32 12 17 1015.7 1015.6 0.0
27/07:00pm 22.1 20.3 15.9 68 3.7 SE 20 26 11 14 1015.5 1015.4 0.0
27/06:30pm 22.4 19.8 16.0 67 3.9 SE 24 30 13 16 1015.1 1015.0 0.0
27/06:00pm 22.6 20.0 15.9 66 4.0 SSE 24 33 13 18 1014.9 1014.8 0.0
27/05:30pm 23.1 20.8 16.6 67 4.0 SSE 24 33 13 18 1014.8 1014.7 0.0
27/05:00pm 23.5 21.1 16.5 65 4.3 SSE 24 33 13 18 1014.6 1014.5 0.0
27/04:30pm 24.6 22.2 17.3 64 4.5 SSE 26 33 14 18 1014.3 1014.2 0.0
27/04:00pm 24.6 21.5 17.6 65 4.4 SSE 30 35 16 19 1014.2 1014.1 0.0
27/03:30pm 24.7 21.3 17.7 65 4.4 SSE 32 39 17 21 1014.1 1014.0 0.0
27/03:00pm 25.2 21.6 17.7 63 4.7 SSE 33 44 18 24 1014.2 1014.1 0.0
27/02:30pm 25.6 21.4 18.0 63 4.8 SSE 37 44 20 24 1014.3 1014.2 0.0
27/02:00pm 26.2 22.9 18.3 61 5.0 SSE 33 43 18 23 1014.8 1014.7 0.0
27/01:30pm 25.9 22.4 17.8 61 5.1 SSE 33 44 18 24 1015.3 1015.2 0.0
27/01:00pm 26.2 27.3 18.1 61 5.1 S 9 41 5 22 1015.6 1015.5 0.0
27/12:42pm 25.7 22.9 17.4 60 5.2 S 28 43 15 23 1015.8 1015.7 0.0
27/12:30pm 25.3 27.5 16.4 57 5.5 CALM 0 0 0 0 1015.9 1015.8 0.0
27/12:00pm 25.9 27.6 15.3 52 6.4 CALM 0 0 0 0 1016.3 1016.2 0.0
27/11:30am 25.1 26.6 14.6 52 6.3 CALM 0 0 0 0 1016.6 1016.5 0.0
27/11:00am 26.4 28.3 15.8 52 6.5 CALM 0 0 0 0 1016.8 1016.7 0.0
27/10:30am 25.5 27.1 14.9 52 6.4 CALM 0 0 0 0 1017.1 1017.0 0.0
27/10:00am 25.1 26.7 14.8 52 6.2 CALM 0 0 0 0 1017.3 1017.2 0.0
27/09:30am 25.1 20.8 15.4 55 5.9 SE 32 43 17 23 1017.2 1017.1 0.0
27/09:00am 24.4 19.9 14.8 55 5.7 SE 32 43 17 23 1016.9 1016.8 0.0
27/08:30am 24.0 19.9 15.0 57 5.4 SE 30 41 16 22 1016.7 1016.6 0.0
27/08:00am 23.6 19.7 15.6 61 4.8 SSE 30 39 16 21 1016.4 1016.3 0.0
27/07:30am 22.9 18.5 15.2 62 4.6 SE 32 43 17 23 1016.1 1016.0 0.0
27/07:00am 22.1 18.0 15.0 64 4.2 SE 30 43 16 23 1015.8 1015.7 0.0
27/06:30am 21.7 17.9 14.6 64 4.2 SSE 28 37 15 20 1015.4 1015.3 0.0
27/06:00am 21.8 17.9 14.4 63 4.3 SE 28 35 15 19 1015.1 1015.0 0.0
27/05:30am 21.7 18.6 14.6 64 4.2 SE 24 33 13 18 1014.9 1014.8 0.0
27/05:00am 21.7 18.6 14.4 63 4.3 SE 24 35 13 19 1014.7 1014.6 0.0
27/04:30am 21.8 18.3 14.4 63 4.3 SE 26 35 14 19 1014.6 1014.5 0.0
27/04:00am 21.8 18.7 14.4 63 4.3 SE 24 33 13 18 1014.7 1014.6 0.0
27/03:30am 21.5 18.8 14.6 65 4.1 SE 22 30 12 16 1014.7 1014.6 0.0
27/03:00am 21.6 19.2 14.5 64 4.2 SE 20 32 11 17 1015.0 1014.9 0.0
27/02:30am 21.8 18.8 14.7 64 4.2 SE 24 33 13 18 1015.1 1015.0 0.0
27/02:00am 21.7 19.1 14.8 65 4.1 SE 22 32 12 17 1015.5 1015.4 0.0
27/01:30am 21.8 19.1 14.7 64 4.2 SE 22 28 12 15 1015.7 1015.6 0.0
27/01:00am 22.0 19.0 14.9 64 4.2 SE 24 32 13 17 1015.8 1015.7 0.0
27/12:30am 22.1 18.7 14.7 63 4.4 SE 26 33 14 18 1016.1 1016.0 0.0
27/12:00am 22.2 18.5 15.1 64 4.2 SE 28 39 15 21 1016.3 1016.2 0.0
 
Date/Time
EST
Temp
°C
App
Temp
°C
Dew
Point
Rel
Hum
%
Delta-T
°C
Wind Press
QNH
hPa
Press
MSL
hPa
Rain
since 9 am
mm
Dir
 
Spd
km/h
Gust
km/h
Spd
kts
Gust
kts
26/11:30pm 22.3 18.8 15.4 65 4.1 SE 28 35 15 19 1016.4 1016.3 0.0
26/11:00pm 22.3 19.3 15.9 67 3.8 SE 26 35 14 19 1016.4 1016.3 0.0
26/10:30pm 22.4 18.6 15.7 66 4.0 SE 30 39 16 21 1016.3 1016.2 0.0
26/10:00pm 22.5 18.3 15.6 65 4.1 SE 32 41 17 22 1016.4 1016.3 0.0
26/09:30pm 22.4 19.0 15.7 66 4.0 SE 28 43 15 23 1016.3 1016.2 0.0
26/09:00pm 22.4 18.5 15.5 65 4.1 SE 30 39 16 21 1016.1 1016.0 0.0
26/08:30pm 22.6 18.3 15.4 64 4.3 SE 32 43 17 23 1015.9 1015.8 0.0
26/08:00pm 22.5 18.6 15.4 64 4.2 SE 30 41 16 22 1015.6 1015.5 0.0
26/07:30pm 22.7 18.2 15.0 61 4.6 SE 32 43 17 23 1015.5 1015.4 0.0
26/07:00pm 22.8 18.3 14.9 61 4.7 SSE 32 46 17 25 1015.2 1015.1 0.0
26/06:30pm 22.9 18.6 15.5 63 4.4 SE 32 46 17 25 1014.9 1014.8 0.0
26/06:00pm 23.2 19.1 16.0 64 4.4 SSE 32 44 17 24 1014.6 1014.5 0.0
26/05:30pm 23.5 19.7 17.3 68 3.8 SSE 33 48 18 26 1014.4 1014.3 0.0
26/05:00pm 23.9 20.1 17.2 66 4.1 SSE 33 44 18 24 1014.3 1014.2 0.0
26/04:30pm 24.6 20.5 17.3 64 4.5 SSE 35 46 19 25 1014.1 1014.0 0.0
26/04:00pm 24.8 20.3 17.3 63 4.7 SSE 37 48 20 26 1013.9 1013.8 0.0
26/03:30pm 25.7 21.5 18.1 63 4.8 SSE 37 50 20 27 1014.0 1013.9 0.0
26/03:00pm 25.6 21.0 18.0 63 4.8 SSE 39 52 21 28 1014.1 1014.0 0.0
26/02:30pm 25.9 21.9 18.6 64 4.6 SSE 37 44 20 24 1014.2 1014.1 0.0
26/02:00pm 25.4 20.9 18.3 65 4.5 SSE 39 50 21 27 1014.3 1014.2 0.0
26/01:30pm 26.1 21.7 18.5 63 4.8 SSE 39 50 21 27 1014.7 1014.6 0.0
26/01:00pm 26.2 22.6 18.6 63 4.8 SSE 35 46 19 25 1015.1 1015.0 0.0
26/12:30pm 25.9 21.7 18.8 65 4.5 SSE 39 50 21 27 1015.3 1015.2 0.0
26/12:00pm 25.3 20.7 18.0 64 4.6 SSE 39 52 21 28 1015.9 1015.8 0.0
26/11:30am 25.5 21.0 18.2 64 4.6 SSE 39 50 21 27 1016.2 1016.1 0.0
26/11:00am 25.4 21.3 18.3 65 4.5 SSE 37 50 20 27 1016.4 1016.3 0.0
26/10:30am 25.2 21.5 17.4 62 4.9 SSE 33 46 18 25 1016.8 1016.7 0.0
26/10:00am 25.4 20.6 15.7 55 5.9 SSE 35 48 19 26 1016.9 1016.8 0.0
26/09:30am 25.4 20.5 16.3 57 5.6 SE 37 50 20 27 1016.9 1016.8 0.0
26/09:00am 25.2 20.8 16.6 59 5.3 SE 35 48 19 26 1016.5 1016.4 0.0
26/08:30am 24.3 19.3 16.0 60 5.0 SSE 37 52 20 28 1016.4 1016.3 0.0
26/08:00am 23.9 19.7 16.2 62 4.7 SE 33 46 18 25 1016.3 1016.2 0.0
26/07:30am 23.3 19.4 16.4 65 4.2 SSE 32 43 17 23 1016.1 1016.0 0.0
26/07:00am 22.6 18.6 16.2 67 3.9 SSE 32 43 17 23 1015.7 1015.6 0.0
26/06:30am 22.2 18.2 16.2 69 3.6 SE 32 43 17 23 1015.5 1015.4 0.0
26/06:00am 22.3 18.5 16.6 70 3.5 SE 32 43 17 23 1015.2 1015.1 0.0
26/05:30am 22.3 18.6 17.0 72 3.3 SE 32 43 17 23 1015.0 1014.9 0.0
26/05:00am 22.0 18.8 17.2 74 2.9 SSE 30 43 16 23 1014.8 1014.7 0.0
26/04:30am 22.2 18.5 16.9 72 3.2 SSE 32 44 17 24 1014.6 1014.5 0.0
26/04:00am 22.1 19.0 16.6 71 3.3 SSE 28 39 15 21 1014.6 1014.5 0.0
26/03:30am 22.1 18.2 16.4 70 3.5 SSE 32 43 17 23 1014.6 1014.5 0.0
26/03:00am 22.1 18.6 16.4 70 3.5 SSE 30 43 16 23 1014.6 1014.5 0.0
26/02:30am 22.2 18.2 16.2 69 3.6 SSE 32 43 17 23 1014.7 1014.6 0.0
26/02:00am 22.2 18.3 16.5 70 3.5 SE 32 43 17 23 1014.9 1014.8 0.0
26/01:30am 22.3 18.5 16.6 70 3.5 SE 32 43 17 23 1015.3 1015.2 0.0
26/01:00am 22.4 18.7 16.9 71 3.4 SE 32 43 17 23 1015.7 1015.6 0.0
26/12:30am 22.5 18.2 16.8 70 3.5 SSE 35 44 19 24 1016.1 1016.0 0.0
26/12:00am 22.6 18.7 16.9 70 3.5 SSE 33 46 18 25 1016.3 1016.2 0.0
 
Date/Time
EST
Temp
°C
App
Temp
°C
Dew
Point
Rel
Hum
%
Delta-T
°C
Wind Press
QNH
hPa
Press
MSL
hPa
Rain
since 9 am
mm
Dir
 
Spd
km/h
Gust
km/h
Spd
kts
Gust
kts
25/11:30pm 22.7 18.5 17.2 71 3.4 SE 35 52 19 28 1016.3 1016.2 0.0
25/11:00pm 22.7 18.8 16.9 70 3.6 SE 33 44 18 24 1016.3 1016.2 0.0
25/10:30pm 22.8 18.9 17.0 70 3.6 SE 33 43 18 23 1016.6 1016.5 0.0
25/10:00pm 22.8 19.0 17.3 71 3.4 SE 33 46 18 25 1016.7 1016.6 0.0
25/09:30pm 22.6 18.7 17.9 75 2.9 SSE 35 46 19 25 1016.8 1016.7 0.0
25/09:00pm 22.8 18.5 17.7 73 3.2 SE 37 50 20 27 1016.7 1016.6 0.0
25/08:30pm 22.8 18.9 17.0 70 3.6 SSE 33 48 18 26 1016.7 1016.6 0.0
25/08:00pm 22.8 18.5 17.0 70 3.6 SSE 35 48 19 26 1016.6 1016.5 0.0
25/07:30pm 22.8 18.2 17.0 70 3.6 SSE 37 48 20 26 1016.4 1016.3 0.0
25/07:00pm 22.9 17.9 17.1 70 3.6 SSE 39 52 21 28 1016.1 1016.0 0.0
25/06:30pm 23.0 18.8 17.2 70 3.6 SSE 35 48 19 26 1015.7 1015.6 0.0
25/06:00pm 23.2 19.4 17.2 69 3.7 SSE 33 48 18 26 1015.6 1015.5 0.0
25/05:30pm 23.5 19.0 17.3 68 3.8 SSE 37 50 20 27 1015.3 1015.2 0.0

Other Formats:

Comma delimited format used in spreadsheet applications
http://www.bom.gov.au/fwo/IDQ60801/IDQ60801.94188.axf

JavaScript Object Notation format (JSON) in row-major order
http://www.bom.gov.au/fwo/IDQ60801/IDQ60801.94188.json